Time;durP1;ratioP1;P1;durP2;ratioP2;P2;SDS_P1;SDS_P2;PMS_P1;PMS_P2;Temp;Humidity;BMP_temperature;BMP_pressure;BME280_temperature;BME280_humidity;BME280_pressure;Samples;Min_cycle;Max_cycle;Signal;HPM_P1;HPM_P2
2022/09/10 00:02:01;;;;;;;10.88;9.88;;;22.00;99.90;;;;;;10211494;29;20250;-81
2022/09/10 00:07:04;;;;;;;11.10;10.10;;;22.00;99.90;;;;;;10242005;28;20230;-81
2022/09/10 00:12:06;;;;;;;11.90;10.70;;;21.90;99.90;;;;;;10250696;29;20598;-82
2022/09/10 00:17:09;;;;;;;11.07;10.18;;;22.00;99.90;;;;;;10217036;28;20739;-81
2022/09/10 00:22:12;;;;;;;12.23;11.05;;;22.00;99.90;;;;;;10250088;29;20266;-82
2022/09/10 00:27:15;;;;;;;10.95;9.98;;;21.90;99.90;;;;;;10233330;29;20598;-81
2022/09/10 00:32:17;;;;;;;11.32;10.13;;;21.90;99.90;;;;;;10230843;28;20210;-82
2022/09/10 00:37:20;;;;;;;11.35;10.25;;;21.90;99.90;;;;;;10232347;29;20202;-82
2022/09/10 00:42:24;;;;;;;11.32;10.32;;;21.90;99.90;;;;;;10249182;28;20728;-81
2022/09/10 00:47:38;;;;;;;10.98;9.98;;;21.90;99.90;;;;;;10230670;29;20292;-81
2022/09/10 00:52:41;;;;;;;11.05;10.02;;;21.90;99.90;;;;;;10231421;29;20242;-82
2022/09/10 00:57:46;;;;;;;11.00;9.98;;;21.90;99.90;;;;;;10230228;28;20238;-82
2022/09/10 01:02:48;;;;;;;11.05;10.05;;;21.90;99.90;;;;;;10248158;28;20305;-81
2022/09/10 01:07:56;;;;;;;10.15;9.25;;;21.80;99.90;;;;;;10231595;29;20326;-81
2022/09/10 01:13:02;;;;;;;9.85;9.00;;;21.90;99.90;;;;;;10230364;29;20242;-82
2022/09/10 01:18:30;;;;;;;11.82;10.80;;;21.80;99.90;;;;;;10230467;28;20801;-81
2022/09/10 01:24:11;;;;;;;10.23;9.32;;;21.80;99.90;;;;;;10231098;28;20269;-82
2022/09/10 01:29:18;;;;;;;9.52;8.73;;;21.80;99.90;;;;;;10230346;29;20739;-81
2022/09/10 01:34:40;;;;;;;10.15;9.25;;;21.80;99.90;;;;;;10207052;29;20655;-81
2022/09/10 01:39:44;;;;;;;10.13;9.23;;;21.80;99.90;;;;;;10209785;29;20241;-82
2022/09/10 01:44:49;;;;;;;9.98;9.07;;;21.70;99.90;;;;;;10229806;28;20249;-81
2022/09/10 01:50:11;;;;;;;9.90;9.07;;;21.70;99.90;;;;;;10229307;28;20573;-81
2022/09/10 01:55:57;;;;;;;10.40;9.40;;;21.70;99.90;;;;;;10229969;29;20243;-82
2022/09/10 02:01:05;;;;;;;9.70;8.85;;;21.70;99.90;;;;;;10229813;29;20206;-82
2022/09/10 02:06:12;;;;;;;9.88;8.93;;;21.80;99.90;;;;;;10229481;28;20233;-81
2022/09/10 02:11:15;;;;;;;8.90;8.15;;;21.80;99.90;;;;;;10214002;29;20269;-82
2022/09/10 02:16:33;;;;;;;9.30;8.50;;;21.70;99.90;;;;;;10250641;28;20233;-82
2022/09/10 02:21:36;;;;;;;9.27;8.48;;;21.70;99.90;;;;;;10236926;28;20782;-81
2022/09/10 02:26:42;;;;;;;9.50;8.60;;;21.70;99.90;;;;;;10235831;29;20245;-82
2022/09/10 02:31:45;;;;;;;9.40;8.55;;;21.70;99.90;;;;;;10236660;28;20242;-83
2022/09/10 02:36:48;;;;;;;9.40;8.50;;;21.70;99.90;;;;;;10236658;29;20656;-81
2022/09/10 02:41:51;;;;;;;9.40;8.60;;;21.70;99.90;;;;;;10220569;29;20332;-81
2022/09/10 02:46:57;;;;;;;9.65;8.75;;;21.70;99.90;;;;;;10221265;28;20285;-81
2022/09/10 02:52:01;;;;;;;9.50;8.60;;;21.70;99.90;;;;;;10235538;29;20693;-81
2022/09/10 02:57:04;;;;;;;8.77;7.97;;;21.70;99.90;;;;;;10236494;28;20342;-81
2022/09/10 03:02:06;;;;;;;9.77;8.77;;;21.70;99.90;;;;;;10221637;29;20251;-82
2022/09/10 03:07:09;;;;;;;9.15;8.30;;;21.70;99.90;;;;;;10212779;29;20256;-82
2022/09/10 03:12:15;;;;;;;8.68;8.00;;;21.60;99.90;;;;;;10225561;29;20246;-86
2022/09/10 03:17:17;;;;;;;9.18;8.38;;;21.60;99.90;;;;;;10235196;29;20285;-82
2022/09/10 03:22:21;;;;;;;8.45;7.78;;;21.60;99.90;;;;;;10235527;28;20258;-82
2022/09/10 03:27:25;;;;;;;8.25;7.55;;;21.60;99.90;;;;;;10234372;28;20262;-82
2022/09/10 03:32:30;;;;;;;8.80;8.00;;;21.60;99.90;;;;;;10233001;28;20242;-82
2022/09/10 03:37:33;;;;;;;8.90;8.10;;;21.60;99.90;;;;;;10247820;28;20198;-81
2022/09/10 03:42:37;;;;;;;8.25;7.55;;;21.60;99.90;;;;;;10231425;28;20262;-82
2022/09/10 03:47:40;;;;;;;8.90;8.10;;;21.60;99.90;;;;;;10233342;29;20301;-82
2022/09/10 03:52:42;;;;;;;8.20;7.45;;;21.60;99.90;;;;;;10232816;29;20238;-82
2022/09/10 03:57:45;;;;;;;8.55;7.75;;;21.60;99.90;;;;;;10221102;29;20289;-82
2022/09/10 04:02:49;;;;;;;8.65;7.85;;;21.60;99.90;;;;;;10232953;29;20350;-82
2022/09/10 04:07:53;;;;;;;8.38;7.57;;;21.50;99.90;;;;;;10250530;28;20281;-81
2022/09/10 04:12:55;;;;;;;8.27;7.57;;;21.50;99.90;;;;;;10231672;29;20211;-82
2022/09/10 04:17:58;;;;;;;8.30;7.60;;;21.50;99.90;;;;;;10224749;28;20231;-81
2022/09/10 04:23:01;;;;;;;8.52;7.80;;;21.50;99.90;;;;;;10206494;29;20707;-81
2022/09/10 04:28:05;;;;;;;8.63;7.82;;;21.50;99.90;;;;;;10229764;28;20199;-81
2022/09/10 04:33:08;;;;;;;8.50;7.70;;;21.60;99.90;;;;;;10228399;29;20245;-81
2022/09/10 04:38:11;;;;;;;7.97;7.35;;;21.60;99.90;;;;;;10230633;28;20293;-81
2022/09/10 04:43:16;;;;;;;7.60;7.00;;;21.50;99.90;;;;;;10222464;29;20309;-82
2022/09/10 04:48:19;;;;;;;8.73;8.02;;;21.50;99.90;;;;;;10230428;29;20234;-82
2022/09/10 04:53:22;;;;;;;7.88;7.28;;;21.50;99.90;;;;;;10210071;29;20588;-81
2022/09/10 04:58:24;;;;;;;8.15;7.45;;;21.50;99.90;;;;;;10208537;29;20238;-81
2022/09/10 05:03:27;;;;;;;7.68;6.97;;;21.50;99.90;;;;;;10218364;29;20254;-81
2022/09/10 05:08:30;;;;;;;7.70;7.00;;;21.50;99.90;;;;;;10231654;29;20249;-82
2022/09/10 05:13:33;;;;;;;7.75;7.15;;;21.60;99.90;;;;;;10230202;29;20277;-81
2022/09/10 05:18:36;;;;;;;7.38;6.70;;;21.60;99.90;;;;;;10245897;28;20289;-81
2022/09/10 05:23:40;;;;;;;7.25;6.65;;;21.60;99.90;;;;;;10230277;28;20258;-81
2022/09/10 05:28:43;;;;;;;7.40;6.80;;;21.60;99.90;;;;;;10229339;28;20238;-81
2022/09/10 05:33:49;;;;;;;7.93;7.22;;;21.60;99.90;;;;;;10243708;28;20276;-81
2022/09/10 05:38:53;;;;;;;8.07;7.28;;;21.50;99.90;;;;;;10211157;28;20262;-81
2022/09/10 05:43:56;;;;;;;8.50;7.60;;;21.50;99.90;;;;;;10224709;28;20777;-81
2022/09/10 05:49:00;;;;;;;8.25;7.43;;;21.60;99.90;;;;;;10241530;28;20293;-81
2022/09/10 05:54:04;;;;;;;7.82;7.13;;;21.60;99.90;;;;;;10242411;29;20699;-81
2022/09/10 05:59:09;;;;;;;7.57;6.88;;;21.50;99.90;;;;;;10242578;28;20233;-81
2022/09/10 06:04:14;;;;;;;6.28;5.68;;;21.50;99.90;;;;;;10242680;28;20277;-81
2022/09/10 06:09:18;;;;;;;7.57;6.75;;;21.40;99.90;;;;;;10239017;29;20292;-81
2022/09/10 06:14:38;;;;;;;7.32;6.72;;;21.40;99.90;;;;;;10241771;29;20237;-82
2022/09/10 06:19:41;;;;;;;6.68;6.18;;;21.50;99.90;;;;;;10223574;28;20320;-82
2022/09/10 06:24:48;;;;;;;7.30;6.70;;;21.50;99.90;;;;;;10241921;28;20246;-82
2022/09/10 06:29:51;;;;;;;6.93;6.32;;;21.50;99.90;;;;;;10245220;28;20242;-82
2022/09/10 06:34:54;;;;;;;7.95;7.25;;;21.50;99.90;;;;;;10244964;28;20206;-81
2022/09/10 06:39:57;;;;;;;7.57;6.90;;;21.50;99.90;;;;;;10204739;29;20254;-82
2022/09/10 06:45:00;;;;;;;7.13;6.53;;;21.60;99.90;;;;;;10232481;28;20266;-82
2022/09/10 06:50:23;;;;;;;7.97;7.28;;;21.50;99.90;;;;;;10213097;29;20927;-81
2022/09/10 06:55:28;;;;;;;6.80;6.22;;;21.60;99.90;;;;;;10217532;28;20747;-81
2022/09/10 07:00:31;;;;;;;6.50;5.97;;;21.60;99.90;;;;;;10237214;28;20243;-82
2022/09/10 07:05:35;;;;;;;6.55;6.05;;;21.60;99.90;;;;;;10234799;28;20261;-81
2022/09/10 07:10:38;;;;;;;6.90;6.30;;;21.60;99.90;;;;;;10234510;29;20239;-81
2022/09/10 07:15:45;;;;;;;7.72;7.05;;;21.60;99.90;;;;;;10219297;29;20206;-84
2022/09/10 07:20:49;;;;;;;7.00;6.43;;;21.60;99.90;;;;;;10235046;29;20234;-87
2022/09/10 07:25:53;;;;;;;9.27;6.03;;;21.60;99.90;;;;;;10233710;29;20261;-81
2022/09/10 07:31:26;;;;;;;6.30;5.80;;;21.60;99.90;;;;;;10250299;28;20234;-84
2022/09/10 07:36:30;;;;;;;6.35;5.85;;;21.60;99.90;;;;;;10231059;29;20286;-81
2022/09/10 07:41:34;;;;;;;6.57;6.07;;;21.60;99.90;;;;;;10218160;28;20242;-81
2022/09/10 07:46:41;;;;;;;7.20;6.53;;;21.70;99.90;;;;;;10233279;28;20316;-80
2022/09/10 07:51:46;;;;;;;6.40;5.90;;;21.60;99.90;;;;;;10250789;29;20258;-81
2022/09/10 07:56:50;;;;;;;6.57;6.05;;;21.70;99.90;;;;;;10232113;29;20242;-81
2022/09/10 08:01:54;;;;;;;6.18;5.68;;;21.70;99.90;;;;;;10232579;28;20249;-81
2022/09/10 08:06:57;;;;;;;6.35;5.85;;;21.70;99.90;;;;;;10232792;29;20269;-81
2022/09/10 08:12:02;;;;;;;7.18;6.50;;;21.70;99.90;;;;;;10233711;28;20675;-81
2022/09/10 08:17:04;;;;;;;6.72;6.13;;;21.70;99.90;;;;;;10197480;29;20265;-80
2022/09/10 08:22:13;;;;;;;6.82;6.32;;;21.70;99.90;;;;;;10232608;29;20316;-80
2022/09/10 08:27:22;;;;;;;6.63;6.13;;;21.70;99.90;;;;;;10232112;29;20265;-81
2022/09/10 08:32:27;;;;;;;6.45;5.95;;;21.70;99.90;;;;;;10232251;29;20765;-81
2022/09/10 08:37:32;;;;;;;7.28;6.68;;;21.70;99.90;;;;;;10231403;28;20234;-81
2022/09/10 08:42:49;;;;;;;6.28;5.78;;;21.80;99.90;;;;;;10230605;28;20242;-81
2022/09/10 08:48:02;;;;;;;6.40;5.90;;;21.80;99.90;;;;;;10214228;28;20296;-81
2022/09/10 08:53:28;;;;;;;6.15;5.65;;;21.80;99.90;;;;;;10204618;28;20245;-81
2022/09/10 08:58:54;;;;;;;6.28;5.78;;;21.80;99.90;;;;;;10231055;29;20206;-82
2022/09/10 09:03:58;;;;;;;6.13;5.50;;;21.80;99.90;;;;;;10216378;29;20253;-81
2022/09/10 09:09:10;;;;;;;6.10;5.60;;;21.80;99.90;;;;;;10230891;29;20202;-82
2022/09/10 09:14:44;;;;;;;6.47;5.93;;;21.80;99.90;;;;;;10228059;29;20242;-80
2022/09/10 09:20:12;;;;;;;3.92;3.63;;;21.90;99.90;;;;;;10242980;28;20691;-80
2022/09/10 09:25:20;;;;;;;5.72;5.22;;;21.70;99.90;;;;;;10229745;28;20253;-83
2022/09/10 09:30:30;;;;;;;6.25;5.75;;;21.50;99.90;;;;;;10227531;28;20284;-80
2022/09/10 09:35:48;;;;;;;3.38;2.22;;;21.70;99.90;;;;;;10229883;29;20210;-81
2022/09/10 09:41:06;;;;;;;2.58;2.00;;;18.50;99.90;;;;;;10230082;29;20281;-80
2022/09/10 09:46:18;;;;;;;2.50;2.03;;;17.80;99.90;;;;;;10224804;29;20288;-82
2022/09/10 09:51:29;;;;;;;2.30;1.83;;;;;;;;;;10228378;29;20640;-81
2022/09/10 09:56:39;;;;;;;3.93;3.60;;;16.80;99.90;;;;;;10247340;28;20716;-81
2022/09/10 10:01:45;;;;;;;4.50;4.10;;;19.10;99.90;;;;;;10247101;29;20242;-81
2022/09/10 10:06:54;;;;;;;1.35;1.25;;;20.50;99.90;;;;;;10244505;28;20254;-82
2022/09/10 10:12:04;;;;;;;2.65;2.08;;;20.40;99.90;;;;;;10240161;28;20649;-81
2022/09/10 10:17:31;;;;;;;2.05;1.70;;;18.20;99.90;;;;;;10243984;28;20266;-80
2022/09/10 10:22:35;;;;;;;5.43;3.47;;;16.90;99.90;;;;;;10227405;29;20230;-80
2022/09/10 10:27:42;;;;;;;4.95;4.00;;;18.70;99.90;;;;;;10237990;28;20277;-84
2022/09/10 10:32:55;;;;;;;6.05;2.95;;;20.40;99.90;;;;;;10229735;29;20238;-83
2022/09/10 10:38:19;;;;;;;2.83;2.63;;;21.00;99.90;;;;;;10222500;29;20234;-83
2022/09/10 10:43:57;;;;;;;3.55;3.25;;;21.30;99.90;;;;;;10248914;28;22071;-83
2022/09/10 10:49:18;;;;;;;3.75;3.00;;;21.50;99.90;;;;;;10235255;29;20238;-83
2022/09/10 10:54:36;;;;;;;8.13;2.63;;;21.60;99.90;;;;;;10232258;28;20285;-83
2022/09/10 10:59:46;;;;;;;2.67;2.30;;;18.20;99.90;;;;;;10229565;29;20273;-82
2022/09/10 11:04:52;;;;;;;1.90;1.80;;;18.40;99.90;;;;;;10232202;28;20246;-82
2022/09/10 11:09:59;;;;;;;4.65;1.70;;;19.00;99.90;;;;;;10253271;29;20238;-82
2022/09/10 11:15:52;;;;;;;1.67;1.58;;;20.50;99.90;;;;;;10253104;28;20253;-82
2022/09/10 11:20:59;;;;;;;1.77;1.63;;;21.20;99.90;;;;;;10110257;29;20656;-83
2022/09/10 11:26:20;;;;;;;2.28;1.55;;;21.60;99.90;;;;;;10129447;29;20324;-82
2022/09/10 11:31:31;;;;;;;2.38;1.50;;;21.80;99.90;;;;;;10113325;29;20303;-82
2022/09/10 11:36:57;;;;;;;1.58;1.48;;;21.80;99.90;;;;;;10129702;29;20291;-82
2022/09/10 11:42:07;;;;;;;3.55;1.65;;;21.90;99.90;;;;;;10097702;29;20687;-83
2022/09/10 11:47:46;;;;;;;1.88;1.30;;;22.00;99.90;;;;;;10111975;29;20288;-83
2022/09/10 11:52:49;;;;;;;1.75;1.30;;;21.70;99.90;;;;;;10202629;29;20675;-84
2022/09/10 11:58:06;;;;;;;4.93;1.52;;;21.50;99.90;;;;;;10251121;29;20703;-83
2022/09/10 12:03:44;;;;;;;0.98;0.88;;;21.70;99.90;;;;;;10250940;28;20284;-83
2022/09/10 12:09:11;;;;;;;0.95;0.80;;;21.90;99.90;;;;;;10233816;28;20214;-83
2022/09/10 12:14:18;;;;;;;1.70;0.90;;;22.00;99.90;;;;;;10250695;29;20225;-83
2022/09/10 12:19:36;;;;;;;1.73;1.30;;;22.10;99.90;;;;;;10233074;29;20269;-84
2022/09/10 12:24:38;;;;;;;1.33;1.20;;;22.10;99.90;;;;;;10233404;29;20277;-84
2022/09/10 12:29:41;;;;;;;1.13;0.93;;;22.20;99.90;;;;;;10250232;28;20616;-84
2022/09/10 12:34:47;;;;;;;1.50;1.13;;;22.20;99.90;;;;;;10232824;29;20238;-83
2022/09/10 12:40:42;;;;;;;1.27;1.17;;;22.20;99.90;;;;;;10250010;28;20266;-84
2022/09/10 12:46:15;;;;;;;1.40;1.10;;;22.20;99.90;;;;;;10207199;28;20316;-82
2022/09/10 12:51:45;;;;;;;1.30;1.00;;;22.20;99.90;;;;;;10232325;29;20260;-84
2022/09/10 12:57:24;;;;;;;1.33;1.23;;;22.10;99.90;;;;;;10232261;29;20289;-85
2022/09/10 13:02:45;;;;;;;0.80;0.77;;;22.10;99.90;;;;;;10125427;29;20284;-83
2022/09/10 13:08:01;;;;;;;0.80;0.80;;;22.10;99.90;;;;;;10125604;29;20295;-83
2022/09/10 13:13:17;;;;;;;1.00;0.90;;;22.10;99.90;;;;;;10110462;29;20432;-83
2022/09/10 13:18:24;;;;;;;1.15;1.00;;;22.10;99.90;;;;;;10125756;29;20326;-83
2022/09/10 13:23:43;;;;;;;2.15;1.13;;;22.10;99.90;;;;;;10094589;29;20248;-83
2022/09/10 13:28:45;;;;;;;0.65;0.65;;;22.10;99.90;;;;;;10100749;29;20264;-83
2022/09/10 13:33:51;;;;;;;1.48;1.38;;;22.10;99.90;;;;;;10078327;29;20288;-83
2022/09/10 13:39:13;;;;;;;0.80;0.75;;;22.10;99.90;;;;;;10179666;29;20305;-83
2022/09/10 13:44:21;;;;;;;1.10;0.98;;;22.20;99.90;;;;;;10203860;29;20242;-83
2022/09/10 13:49:52;;;;;;;0.93;0.82;;;22.30;99.90;;;;;;10205653;29;20238;-83
2022/09/10 13:54:56;;;;;;;1.33;1.23;;;22.40;99.90;;;;;;10205133;29;20234;-83
2022/09/10 14:00:23;;;;;;;1.45;0.98;;;22.40;99.90;;;;;;10207923;29;20600;-83
2022/09/10 14:05:35;;;;;;;1.55;1.10;;;22.60;99.90;;;;;;10186711;29;20278;-83
2022/09/10 14:11:05;;;;;;;1.38;0.77;;;22.60;99.90;;;;;;10208037;29;20254;-82
2022/09/10 14:16:12;;;;;;;0.70;0.65;;;22.40;99.90;;;;;;10212413;29;20289;-82
2022/09/10 14:21:16;;;;;;;2.40;1.10;;;22.50;99.90;;;;;;10213372;29;20273;-82
2022/09/10 14:26:25;;;;;;;1.38;1.02;;;22.60;99.90;;;;;;10223086;23;20228;-85
2022/09/10 14:31:30;;;;;;;0.93;0.90;;;22.30;99.90;;;;;;10241341;23;20241;-94
2022/09/10 14:36:33;;;;;;;2.05;1.65;;;22.30;99.90;;;;;;10241493;28;20257;-93
2022/09/10 14:41:35;;;;;;;1.02;0.65;;;22.40;99.90;;;;;;10239700;28;20285;-94
2022/09/10 14:47:13;;;;;;;4.28;1.20;;;22.40;99.90;;;;;;10238359;29;20264;-91
2022/09/10 14:52:16;;;;;;;2.08;1.15;;;22.30;99.90;;;;;;10235377;28;20702;-92
2022/09/10 14:57:19;;;;;;;0.93;0.70;;;22.20;99.90;;;;;;10255440;29;20281;-93
2022/09/10 15:02:25;;;;;;;1.55;1.42;;;22.10;99.90;;;;;;10238782;28;20246;-94
2022/09/10 15:07:28;;;;;;;1.88;1.00;;;22.20;99.90;;;;;;10253791;28;20317;-92
2022/09/10 15:12:31;;;;;;;1.20;0.88;;;22.00;99.90;;;;;;10236466;29;20713;-93
2022/09/10 15:17:34;;;;;;;1.52;1.27;;;22.00;99.90;;;;;;10253269;28;20242;-92
2022/09/10 15:22:36;;;;;;;1.10;1.00;;;21.90;99.90;;;;;;10236190;28;20259;-91
2022/09/10 15:27:39;;;;;;;1.20;1.10;;;22.00;99.90;;;;;;10237393;28;20300;-92
2022/09/10 15:32:41;;;;;;;1.20;1.00;;;22.00;99.90;;;;;;10224661;29;20712;-93
2022/09/10 15:37:44;;;;;;;2.30;1.33;;;22.00;99.90;;;;;;10237151;29;20210;-93
2022/09/10 15:42:47;;;;;;;3.38;1.17;;;22.00;99.90;;;;;;10253608;28;20234;-92
2022/09/10 15:47:50;;;;;;;1.33;1.02;;;22.10;99.90;;;;;;10252661;28;20246;-94
2022/09/10 15:52:52;;;;;;;0.70;0.70;;;22.10;99.90;;;;;;10252775;28;20194;-94
2022/09/10 15:57:55;;;;;;;1.23;1.10;;;22.10;99.90;;;;;;10236811;28;20640;-93
2022/09/10 16:02:57;;;;;;;21.90;3.53;;;22.00;99.90;;;;;;10247514;28;20742;-96
2022/09/10 16:08:03;;;;;;;1.30;1.05;;;22.00;99.90;;;;;;10235399;29;20289;-91
2022/09/10 16:13:05;;;;;;;4.85;4.45;;;20.30;99.90;;;;;;10257233;28;20688;-91
2022/09/10 16:18:08;;;;;;;7.22;6.63;;;22.00;99.90;;;;;;10249730;28;20241;-91
2022/09/10 16:23:11;;;;;;;10.35;6.00;;;23.10;99.90;;;;;;10251491;28;20202;-92
2022/09/10 16:28:13;;;;;;;2.47;2.10;;;19.60;99.90;;;;;;9907114;28;10000276;-91
2022/09/10 16:33:16;;;;;;;2.85;2.28;;;18.40;99.90;;;;;;10246151;28;20269;-92
2022/09/10 16:38:18;;;;;;;7.82;2.22;;;18.30;99.90;;;;;;10246920;29;20631;-92
2022/09/10 16:43:21;;;;;;;4.80;3.53;;;18.10;99.90;;;;;;10247029;29;20226;-92
2022/09/10 16:48:24;;;;;;;20.52;12.60;;;18.20;99.90;;;;;;10243214;28;20254;-92
2022/09/10 16:53:26;;;;;;;7.78;5.68;;;18.20;99.90;;;;;;10206650;29;20227;-92
2022/09/10 16:58:29;;;;;;;8.32;5.60;;;18.00;99.90;;;;;;10231721;29;20257;-91
2022/09/10 17:03:42;;;;;;;7.40;5.68;;;18.10;99.90;;;;;;10245064;28;20202;-93
2022/09/10 17:08:46;;;;;;;6.25;4.70;;;18.40;99.90;;;;;;10246594;28;20735;-92
2022/09/10 17:13:49;;;;;;;5.53;4.78;;;17.50;99.90;;;;;;10246561;29;20233;-92
2022/09/10 17:19:13;;;;;;;6.20;5.47;;;16.90;99.90;;;;;;10238709;29;20278;-92
2022/09/10 17:24:18;;;;;;;6.83;5.30;;;16.40;99.90;;;;;;10234251;28;20257;-93
2022/09/10 17:29:22;;;;;;;8.07;6.23;;;17.10;99.90;;;;;;10237681;28;20258;-92
2022/09/10 17:34:26;;;;;;;8.40;6.93;;;16.00;99.90;;;;;;10239703;28;20750;-92
2022/09/10 17:39:29;;;;;;;12.70;8.33;;;15.80;99.90;;;;;;10251111;28;20243;-92
2022/09/10 17:44:32;;;;;;;12.07;8.97;;;15.70;99.90;;;;;;10253859;28;20291;-93
2022/09/10 17:49:37;;;;;;;10.87;8.77;;;15.60;99.90;;;;;;10238012;28;20726;-93
2022/09/10 17:54:40;;;;;;;12.70;9.90;;;15.50;99.90;;;;;;10241968;28;20629;-92
2022/09/10 17:59:42;;;;;;;13.07;10.57;;;15.40;99.90;;;;;;10225815;28;20289;-91
2022/09/10 18:04:51;;;;;;;15.70;10.93;;;15.10;99.90;;;;;;10194585;29;20301;-92
2022/09/10 18:09:56;;;;;;;15.97;10.80;;;;;;;;;;10213187;29;20235;-91
2022/09/10 18:14:59;;;;;;;17.37;11.93;;;15.20;99.90;;;;;;10229830;28;20232;-91
2022/09/10 18:20:01;;;;;;;14.73;11.40;;;15.10;99.90;;;;;;10210354;29;20271;-93
2022/09/10 18:25:13;;;;;;;16.63;11.63;;;15.10;99.90;;;;;;10219002;29;20283;-92
2022/09/10 18:30:16;;;;;;;20.87;11.97;;;15.10;99.90;;;;;;10235334;28;20238;-94
2022/09/10 18:35:19;;;;;;;13.63;10.30;;;15.00;99.90;;;;;;10228945;28;20347;-92
2022/09/10 18:40:22;;;;;;;15.67;11.40;;;15.00;99.90;;;;;;10206203;29;20687;-93
2022/09/10 18:45:24;;;;;;;17.30;12.00;;;14.90;99.90;;;;;;10190065;29;20256;-93
2022/09/10 18:50:27;;;;;;;21.87;12.27;;;14.80;99.90;;;;;;10225841;29;20230;-93
2022/09/10 18:55:30;;;;;;;29.03;19.17;;;15.00;99.90;;;;;;10209359;29;20241;-92
2022/09/10 19:00:33;;;;;;;20.37;15.77;;;17.00;99.90;;;;;;10220088;28;20230;-94
2022/09/10 19:05:36;;;;;;;20.15;16.58;;;20.00;99.90;;;;;;10236272;29;20254;-92
2022/09/10 19:10:38;;;;;;;21.17;16.33;;;21.30;99.90;;;;;;10231922;28;20276;-92
2022/09/10 19:15:42;;;;;;;24.45;17.70;;;;;;;;;;10235289;28;20234;-92
2022/09/10 19:20:45;;;;;;;20.35;15.73;;;22.00;99.90;;;;;;10233985;28;20237;-91
2022/09/10 19:25:55;;;;;;;18.65;14.82;;;22.50;99.90;;;;;;10234866;28;20727;-91
2022/09/10 19:31:03;;;;;;;19.25;15.95;;;22.80;99.90;;;;;;10215216;28;20769;-93
2022/09/10 19:36:09;;;;;;;20.15;16.15;;;23.00;99.90;;;;;;10234777;28;20691;-91
2022/09/10 19:41:17;;;;;;;20.95;16.25;;;23.00;99.90;;;;;;10235438;28;20253;-92
2022/09/10 19:46:26;;;;;;;20.08;15.35;;;23.00;99.90;;;;;;10234060;28;20270;-90
2022/09/10 19:51:32;;;;;;;17.98;14.57;;;23.00;99.90;;;;;;10214847;28;20634;-91
2022/09/10 19:56:38;;;;;;;17.90;14.70;;;23.10;99.90;;;;;;10249865;28;20791;-90
2022/09/10 20:01:43;;;;;;;18.08;13.90;;;23.10;99.90;;;;;;10233676;28;20230;-91
2022/09/10 20:06:46;;;;;;;19.40;14.90;;;23.10;99.90;;;;;;10222134;28;20299;-94
2022/09/10 20:11:49;;;;;;;16.40;14.05;;;23.10;99.90;;;;;;10236820;28;20206;-92
2022/09/10 20:16:52;;;;;;;17.38;14.63;;;23.10;99.90;;;;;;10232825;28;20238;-93
2022/09/10 20:21:54;;;;;;;19.77;15.10;;;23.10;99.90;;;;;;10226640;28;20239;-91
2022/09/10 20:26:57;;;;;;;15.50;13.52;;;23.00;99.90;;;;;;10223595;28;20265;-91
2022/09/10 20:31:59;;;;;;;18.48;13.80;;;23.00;99.90;;;;;;10232457;28;20261;-91
2022/09/10 20:37:02;;;;;;;18.33;14.82;;;23.00;99.90;;;;;;10229265;28;20316;-91
2022/09/10 20:42:05;;;;;;;17.63;13.82;;;23.00;99.90;;;;;;10223907;28;20206;-92
2022/09/10 20:47:09;;;;;;;16.80;13.98;;;23.00;99.90;;;;;;10232915;28;20949;-92
2022/09/10 20:52:11;;;;;;;19.80;14.18;;;23.00;99.90;;;;;;10265761;28;20206;-92
2022/09/10 20:57:15;;;;;;;18.08;14.68;;;22.90;99.90;;;;;;10231765;29;20231;-91
2022/09/10 21:02:17;;;;;;;16.17;13.73;;;23.00;99.90;;;;;;10232072;28;20721;-91
2022/09/10 21:07:20;;;;;;;15.75;13.30;;;23.00;99.90;;;;;;10225550;28;20281;-91
2022/09/10 21:12:22;;;;;;;15.48;13.07;;;23.00;99.90;;;;;;10249626;28;20230;-92
2022/09/10 21:17:25;;;;;;;15.85;13.40;;;23.00;99.90;;;;;;10231019;28;20230;-93
2022/09/10 21:22:27;;;;;;;14.73;12.93;;;22.90;99.90;;;;;;10229101;28;20250;-92
2022/09/10 21:27:30;;;;;;;14.55;12.85;;;23.00;99.90;;;;;;10230041;28;20658;-92
2022/09/10 21:32:33;;;;;;;14.45;12.70;;;23.00;99.90;;;;;;10243389;28;20308;-92
2022/09/10 21:37:36;;;;;;;15.80;13.20;;;22.90;99.90;;;;;;10230547;29;20218;-91
2022/09/10 21:42:38;;;;;;;15.40;12.93;;;22.90;99.90;;;;;;10230045;29;20234;-92
2022/09/10 21:47:42;;;;;;;17.13;13.25;;;22.90;99.90;;;;;;10247401;28;20656;-92
2022/09/10 21:52:45;;;;;;;15.25;13.05;;;22.90;99.90;;;;;;10215823;28;20742;-91
2022/09/10 21:57:47;;;;;;;15.02;13.07;;;22.90;99.90;;;;;;10227797;29;20285;-91
2022/09/10 22:02:50;;;;;;;17.70;13.57;;;22.80;99.90;;;;;;10226384;28;20272;-91
2022/09/10 22:07:53;;;;;;;15.05;12.68;;;22.80;99.90;;;;;;10260528;28;20703;-91
2022/09/10 22:12:56;;;;;;;14.07;12.48;;;22.80;99.90;;;;;;10226738;29;20301;-94
2022/09/10 22:17:58;;;;;;;14.75;12.82;;;22.70;99.90;;;;;;10246607;28;20271;-91
2022/09/10 22:23:02;;;;;;;16.27;13.10;;;22.70;99.90;;;;;;10230047;28;20211;-92
2022/09/10 22:28:05;;;;;;;16.98;13.50;;;22.70;99.90;;;;;;10229932;28;20301;-93
2022/09/10 22:33:07;;;;;;;15.88;12.85;;;22.70;99.90;;;;;;10241683;28;20787;-93
2022/09/10 22:38:12;;;;;;;16.42;13.23;;;22.70;99.90;;;;;;10253437;28;20266;-91
2022/09/10 22:43:20;;;;;;;15.98;12.43;;;22.70;99.90;;;;;;10253371;28;20246;-92
2022/09/10 22:48:23;;;;;;;13.80;11.70;;;22.70;99.90;;;;;;10253170;28;20250;-91
2022/09/10 22:53:26;;;;;;;15.07;12.95;;;22.70;99.90;;;;;;10239368;29;20234;-91
2022/09/10 22:58:28;;;;;;;15.77;12.82;;;22.60;99.90;;;;;;10254486;28;20259;-94
2022/09/10 23:03:31;;;;;;;15.93;12.57;;;22.60;99.90;;;;;;10255064;28;20257;-92
2022/09/10 23:08:38;;;;;;;15.10;12.85;;;22.60;99.90;;;;;;10252559;28;20250;-92
2022/09/10 23:13:42;;;;;;;16.63;12.52;;;22.60;99.90;;;;;;10251396;28;20234;-93
2022/09/10 23:18:53;;;;;;;14.75;11.52;;;22.60;99.90;;;;;;10253273;28;20704;-92
2022/09/10 23:23:58;;;;;;;14.30;12.50;;;22.60;99.90;;;;;;10251151;28;20233;-92
2022/09/10 23:29:03;;;;;;;14.52;12.65;;;22.60;99.90;;;;;;10252123;29;20245;-90
2022/09/10 23:34:09;;;;;;;13.32;11.93;;;22.60;99.90;;;;;;10247901;28;20234;-94
2022/09/10 23:39:21;;;;;;;13.68;11.93;;;22.50;99.90;;;;;;10250917;28;20237;-92
2022/09/10 23:44:24;;;;;;;12.77;10.93;;;22.50;99.90;;;;;;10250357;28;20666;-93
2022/09/10 23:49:27;;;;;;;15.07;12.23;;;22.50;99.90;;;;;;10251098;28;20261;-93
2022/09/10 23:54:29;;;;;;;14.80;12.00;;;22.50;99.90;;;;;;10250954;28;20237;-91
2022/09/10 23:59:32;;;;;;;15.57;11.73;;;22.40;99.90;;;;;;10251953;28;20630;-91
